Time;durP1;ratioP1;P1;durP2;ratioP2;P2;SDS_P1;SDS_P2;PMS_P1;PMS_P2;Temp;Humidity;BMP_temperature;BMP_pressure;BME280_temperature;BME280_humidity;BME280_pressure;Samples;Min_cycle;Max_cycle;Signal;HPM_P1;HPM_P2
2022/10/05 05:08:50;;;;;;;9.73;2.25;;;17.10;77.00;;;;;;4766596;30;20587;-73
2022/10/05 05:11:40;;;;;;;10.20;1.98;;;17.10;77.30;;;;;;4771730;30;20138;-74
2022/10/05 05:14:22;;;;;;;7.35;1.70;;;17.10;77.10;;;;;;4771898;30;20087;-72
2022/10/05 05:17:05;;;;;;;7.78;2.08;;;17.10;77.30;;;;;;4770972;30;20067;-72
2022/10/05 05:19:43;;;;;;;5.72;1.70;;;17.10;77.20;;;;;;4771498;30;20059;-73
2022/10/05 05:22:27;;;;;;;7.10;2.08;;;17.10;77.30;;;;;;4775148;30;20098;-72
2022/10/05 05:25:19;;;;;;;7.40;1.60;;;17.10;77.40;;;;;;4775345;30;20104;-74
2022/10/05 05:27:59;;;;;;;8.07;1.90;;;17.10;77.10;;;;;;4774557;30;20056;-71
2022/10/05 05:30:39;;;;;;;5.82;1.98;;;17.10;77.10;;;;;;4775361;30;20051;-72
2022/10/05 05:33:14;;;;;;;7.45;1.90;;;17.10;77.20;;;;;;4775476;30;20499;-75
2022/10/05 05:35:52;;;;;;;11.05;3.22;;;17.10;77.50;;;;;;4774228;30;20474;-73
2022/10/05 05:38:35;;;;;;;7.13;2.28;;;17.10;77.70;;;;;;4775892;30;20133;-73
2022/10/05 05:41:23;;;;;;;5.68;2.60;;;17.10;77.60;;;;;;4775191;30;20371;-72
2022/10/05 05:44:10;;;;;;;5.90;1.90;;;17.10;77.80;;;;;;4775309;30;20143;-74
2022/10/05 05:46:39;;;;;;;9.43;2.75;;;17.10;77.60;;;;;;4775090;30;20436;-73
2022/10/05 05:49:44;;;;;;;15.82;3.25;;;17.10;77.60;;;;;;4774780;30;20456;-76
2022/10/05 05:52:39;;;;;;;6.05;2.10;;;17.10;77.70;;;;;;4761563;30;20103;-75
2022/10/05 05:55:26;;;;;;;9.13;2.30;;;17.10;77.70;;;;;;4772780;30;20059;-74
2022/10/05 05:58:10;;;;;;;5.43;2.30;;;17.20;77.40;;;;;;4774699;30;20052;-75
2022/10/05 06:00:39;;;;;;;;;;;17.20;77.20;;;;;;4775360;30;20055;-76
2022/10/05 06:03:34;;;;;;;6.88;2.60;;;17.20;77.00;;;;;;4767062;30;19941;-74
2022/10/05 06:06:14;;;;;;;7.35;2.97;;;17.20;76.90;;;;;;4760544;30;20342;-76
2022/10/05 06:08:52;;;;;;;6.57;2.47;;;17.20;76.70;;;;;;4755972;30;20159;-74
2022/10/05 06:11:35;;;;;;;9.85;3.33;;;17.20;76.50;;;;;;4757041;30;20056;-76
2022/10/05 06:14:10;;;;;;;5.68;3.05;;;17.30;76.40;;;;;;4760664;30;20055;-76
2022/10/05 06:16:47;;;;;;;9.18;3.42;;;17.20;76.30;;;;;;4773960;30;20070;-78
2022/10/05 06:19:17;;;;;;;7.57;3.50;;;17.20;76.10;;;;;;4781023;30;20087;-75
2022/10/05 06:21:49;;;;;;;8.23;3.42;;;17.20;76.10;;;;;;4792618;30;20047;-75
2022/10/05 06:24:42;;;;;;;6.82;3.33;;;17.20;76.20;;;;;;4785962;30;20079;-75
2022/10/05 06:27:37;;;;;;;5.93;3.10;;;17.30;76.30;;;;;;4774393;30;20344;-72
2022/10/05 06:30:15;;;;;;;5.22;3.35;;;17.20;76.10;;;;;;4773694;30;20124;-74
2022/10/05 06:32:49;;;;;;;6.40;3.35;;;17.20;75.60;;;;;;4772151;30;20139;-76
2022/10/05 06:35:24;;;;;;;5.50;3.00;;;17.20;75.50;;;;;;4761188;30;20464;-76
2022/10/05 06:38:28;;;;;;;6.35;3.10;;;17.20;75.20;;;;;;4756240;30;20060;-76
2022/10/05 06:40:59;;;;;;;6.18;3.38;;;17.20;75.40;;;;;;4770665;30;20156;-76
2022/10/05 06:43:46;;;;;;;6.03;2.92;;;17.20;75.70;;;;;;4755772;30;20060;-74
2022/10/05 06:46:39;;;;;;;9.90;3.13;;;17.10;75.40;;;;;;4772498;30;20062;-74
2022/10/05 06:49:36;;;;;;;9.73;2.72;;;17.10;75.30;;;;;;4773890;30;20056;-73
2022/10/05 06:52:21;;;;;;;5.50;2.90;;;17.10;75.30;;;;;;4771736;30;20063;-75
2022/10/05 06:54:56;;;;;;;3.72;2.22;;;17.10;75.30;;;;;;4755644;30;20453;-71
2022/10/05 06:57:40;;;;;;;5.55;3.03;;;17.20;75.30;;;;;;4755064;30;20496;-74
2022/10/05 07:00:17;;;;;;;6.10;2.55;;;17.20;75.20;;;;;;4755961;30;20052;-73
2022/10/05 07:02:47;;;;;;;4.78;2.53;;;17.20;75.20;;;;;;4762110;30;20048;-74
2022/10/05 07:05:34;;;;;;;5.53;2.33;;;17.20;75.20;;;;;;4773787;30;20055;-73
2022/10/05 07:08:23;;;;;;;5.35;3.00;;;17.20;75.80;;;;;;4773394;30;20067;-74
2022/10/05 07:11:02;;;;;;;4.40;2.17;;;17.20;75.20;;;;;;4773980;30;20067;-73
2022/10/05 07:13:46;;;;;;;5.72;2.20;;;17.20;75.00;;;;;;4760882;30;20060;-73
2022/10/05 07:16:20;;;;;;;3.88;2.45;;;17.20;74.60;;;;;;4755772;30;20052;-73
2022/10/05 07:18:58;;;;;;;5.53;2.47;;;17.10;74.50;;;;;;4756656;30;20059;-72
2022/10/05 07:21:34;;;;;;;4.00;2.20;;;17.10;74.60;;;;;;4773754;30;20059;-74
2022/10/05 07:24:29;;;;;;;3.42;2.10;;;17.10;74.70;;;;;;4781364;30;20066;-73
2022/10/05 07:27:04;;;;;;;3.80;2.00;;;17.10;74.70;;;;;;4755499;30;20052;-74
2022/10/05 07:29:44;;;;;;;3.60;1.80;;;17.10;74.60;;;;;;4755883;30;20086;-72
2022/10/05 07:32:33;;;;;;;2.72;1.85;;;17.10;74.40;;;;;;4755174;30;20052;-71
2022/10/05 07:38:31;;;;;;;3.35;1.50;;;17.00;74.50;;;;;;4790602;30;20051;-75
2022/10/05 07:41:23;;;;;;;3.83;1.50;;;17.00;74.50;;;;;;4755496;30;20068;-74
2022/10/05 07:44:07;;;;;;;3.22;1.23;;;17.10;74.60;;;;;;4754850;30;20060;-75
2022/10/05 07:46:45;;;;;;;4.47;1.67;;;17.10;74.70;;;;;;4756605;30;20483;-74
2022/10/05 07:49:16;;;;;;;3.53;1.30;;;17.10;74.70;;;;;;4773606;30;20063;-76
2022/10/05 07:51:49;;;;;;;2.67;1.33;;;17.10;74.70;;;;;;4772931;30;20083;-74
2022/10/05 07:54:33;;;;;;;5.22;1.30;;;17.20;74.80;;;;;;4773065;30;20132;-74
2022/10/05 07:57:27;;;;;;;2.63;1.08;;;17.20;74.80;;;;;;4767365;30;20048;-74
2022/10/05 08:00:00;;;;;;;2.22;1.23;;;17.20;74.80;;;;;;4772549;30;20067;-75
2022/10/05 08:02:33;;;;;;;2.28;1.30;;;17.20;74.80;;;;;;4768146;30;20152;-75
2022/10/05 08:05:24;;;;;;;1.73;1.00;;;17.20;74.80;;;;;;4772671;30;20063;-74
2022/10/05 08:08:09;;;;;;;1.58;0.63;;;17.20;74.80;;;;;;4772385;30;20103;-74
2022/10/05 08:10:50;;;;;;;2.05;0.88;;;17.30;74.80;;;;;;4772811;30;20103;-75
2022/10/05 08:13:29;;;;;;;1.77;0.85;;;17.30;74.80;;;;;;4758751;30;20441;-74
2022/10/05 08:16:00;;;;;;;2.35;1.45;;;17.30;74.80;;;;;;4754813;30;20126;-74
2022/10/05 08:18:37;;;;;;;2.55;0.65;;;17.30;74.80;;;;;;4754778;30;20087;-74
2022/10/05 08:21:10;;;;;;;1.55;0.70;;;17.30;74.70;;;;;;4754711;30;20052;-76
2022/10/05 08:23:55;;;;;;;2.53;1.07;;;17.30;74.80;;;;;;4770075;30;20056;-75
2022/10/05 08:26:59;;;;;;;1.45;0.88;;;17.40;74.80;;;;;;4772420;30;20048;-74
2022/10/05 08:29:31;;;;;;;;;;;17.40;74.80;;;;;;4753901;30;20158;-75
2022/10/05 08:32:03;;;;;;;1.00;0.52;;;17.40;74.90;;;;;;4768600;30;19941;-73
2022/10/05 08:34:44;;;;;;;1.13;0.60;;;17.40;74.90;;;;;;4754191;30;20444;-75
2022/10/05 08:37:27;;;;;;;1.70;0.60;;;17.40;74.80;;;;;;4754921;30;20460;-75
2022/10/05 08:40:17;;;;;;;1.02;0.60;;;17.40;74.90;;;;;;4754663;30;20121;-74
2022/10/05 08:43:08;;;;;;;1.45;0.70;;;17.40;74.90;;;;;;4763080;30;20071;-74
2022/10/05 08:45:52;;;;;;;1.27;0.52;;;17.40;74.90;;;;;;4772321;30;20503;-74
2022/10/05 08:48:46;;;;;;;1.70;0.70;;;17.50;75.00;;;;;;4772266;30;20109;-74
2022/10/05 08:51:19;;;;;;;2.47;0.55;;;17.50;75.00;;;;;;4772416;30;20125;-74
2022/10/05 08:54:30;;;;;;;2.13;0.82;;;17.40;74.90;;;;;;4755401;30;20048;-74
2022/10/05 08:57:02;;;;;;;1.67;0.68;;;17.50;75.00;;;;;;4734117;30;20132;-74
2022/10/05 09:00:02;;;;;;;1.08;0.50;;;17.50;75.00;;;;;;4735057;30;20122;-75
2022/10/05 09:02:39;;;;;;;1.73;0.50;;;17.50;75.10;;;;;;4755691;30;20497;-74
2022/10/05 09:05:23;;;;;;;0.70;0.43;;;17.50;75.10;;;;;;4771525;30;20062;-75
2022/10/05 09:08:07;;;;;;;1.08;0.73;;;17.50;75.10;;;;;;4771724;30;20072;-75
2022/10/05 09:10:51;;;;;;;0.90;0.40;;;17.50;75.20;;;;;;4772006;30;20070;-75
2022/10/05 09:13:39;;;;;;;1.48;0.40;;;17.50;75.20;;;;;;4759681;30;20071;-73
2022/10/05 09:16:30;;;;;;;4.32;0.60;;;17.50;75.20;;;;;;4765784;30;20488;-73
2022/10/05 09:18:55;;;;;;;2.50;0.60;;;17.60;75.30;;;;;;4771699;30;20105;-73
2022/10/05 09:21:34;;;;;;;3.65;0.60;;;17.60;75.40;;;;;;4772589;30;20063;-73
2022/10/05 09:24:25;;;;;;;4.80;0.68;;;17.60;75.50;;;;;;4772007;30;20070;-73
2022/10/05 09:27:14;;;;;;;2.30;0.80;;;17.60;75.70;;;;;;4753533;30;20060;-73
2022/10/05 09:30:04;;;;;;;1.23;0.63;;;17.60;75.80;;;;;;4763569;30;20055;-74
2022/10/05 09:32:51;;;;;;;2.60;0.80;;;17.60;75.80;;;;;;4772214;30;20447;-73
2022/10/05 09:35:49;;;;;;;2.47;0.60;;;17.60;75.80;;;;;;4763129;30;20064;-75
2022/10/05 09:38:30;;;;;;;13.30;1.13;;;17.70;75.80;;;;;;4742668;30;20495;-73
2022/10/05 09:41:19;;;;;;;5.72;0.93;;;17.60;75.80;;;;;;4753867;30;20060;-68
2022/10/05 09:43:51;;;;;;;2.63;0.90;;;17.70;75.90;;;;;;4744555;30;20060;-76
2022/10/05 09:46:35;;;;;;;4.10;0.75;;;17.70;75.90;;;;;;4754923;30;20479;-73
2022/10/05 09:49:25;;;;;;;4.07;0.77;;;17.70;76.00;;;;;;4771854;30;20117;-72
2022/10/05 09:51:58;;;;;;;4.15;0.95;;;17.70;76.30;;;;;;4770955;30;20386;-72
2022/10/05 09:54:45;;;;;;;3.35;1.27;;;17.70;76.10;;;;;;4765939;30;20067;-75
2022/10/05 09:57:29;;;;;;;2.60;1.08;;;17.70;76.20;;;;;;4780520;30;20051;-72
2022/10/05 10:00:14;;;;;;;3.13;1.02;;;17.80;76.20;;;;;;4789292;30;20043;-74
2022/10/05 10:03:06;;;;;;;3.15;1.05;;;17.80;75.90;;;;;;4761399;30;20070;-82
2022/10/05 10:05:32;;;;;;;7.95;1.25;;;17.80;75.50;;;;;;4768196;30;20047;-78
2022/10/05 10:08:19;;;;;;;4.43;1.30;;;17.70;75.30;;;;;;4788770;29;20063;-75
2022/10/05 10:10:52;;;;;;;5.80;1.33;;;17.80;75.10;;;;;;4774457;30;20353;-77
2022/10/05 10:13:21;;;;;;;4.28;1.05;;;17.80;74.90;;;;;;4774689;30;20132;-73
2022/10/05 10:16:07;;;;;;;3.92;1.05;;;17.70;74.50;;;;;;4773320;30;20367;-73
2022/10/05 10:55:03;;;;;;;2.75;1.00;;;17.80;74.50;;;;;;5204947;24;20110;-72
2022/10/05 10:58:07;;;;;;;3.35;1.27;;;17.80;74.30;;;;;;4826899;29;20058;-74
2022/10/05 11:01:07;;;;;;;4.38;1.00;;;17.80;74.60;;;;;;4827239;29;20054;-76
2022/10/05 11:04:10;;;;;;;3.33;1.27;;;17.80;74.10;;;;;;4827574;29;20091;-74
2022/10/05 11:06:55;;;;;;;1.70;0.90;;;17.80;74.20;;;;;;4828368;29;20054;-75
2022/10/05 11:09:52;;;;;;;2.53;1.10;;;17.80;74.30;;;;;;4845610;29;20141;-76
2022/10/05 11:12:59;;;;;;;3.25;1.02;;;17.80;74.30;;;;;;4845783;29;20086;-74
2022/10/05 11:15:38;;;;;;;2.45;1.17;;;17.80;74.50;;;;;;4771058;30;20056;-75
2022/10/05 11:18:53;;;;;;;2.92;1.10;;;17.80;74.60;;;;;;4759026;30;20052;-76
2022/10/05 11:21:41;;;;;;;;;;;17.80;74.70;;;;;;4789924;29;20366;-73
2022/10/05 11:24:20;;;;;;;3.05;0.88;;;17.80;74.70;;;;;;4808926;29;19939;-75
2022/10/05 11:27:02;;;;;;;2.60;1.17;;;17.80;74.70;;;;;;4811082;29;20484;-75
2022/10/05 11:29:52;;;;;;;3.10;1.38;;;17.80;74.60;;;;;;4845978;29;20397;-73
2022/10/05 11:32:30;;;;;;;6.80;1.63;;;17.80;74.20;;;;;;4845852;29;20057;-74
2022/10/05 11:35:33;;;;;;;3.92;1.17;;;17.80;74.00;;;;;;4845656;29;20132;-77
2022/10/05 11:38:17;;;;;;;5.57;1.20;;;17.80;74.10;;;;;;4835020;29;20089;-74
2022/10/05 11:41:02;;;;;;;4.45;1.13;;;17.80;74.20;;;;;;4827514;29;20050;-74
2022/10/05 11:43:52;;;;;;;4.93;1.10;;;17.80;74.20;;;;;;4827119;29;20054;-74
2022/10/05 11:46:23;;;;;;;4.65;1.05;;;17.80;74.20;;;;;;4826842;29;20042;-75
2022/10/05 11:49:14;;;;;;;3.97;1.15;;;17.80;74.30;;;;;;4841927;29;20453;-75
2022/10/05 11:51:52;;;;;;;4.18;1.25;;;17.80;74.20;;;;;;4845342;29;20095;-75
2022/10/05 11:54:36;;;;;;;4.45;1.20;;;17.80;74.30;;;;;;4845189;29;20061;-74
2022/10/05 11:57:15;;;;;;;6.10;1.23;;;17.80;74.20;;;;;;4842955;29;20350;-74
2022/10/05 14:05:25;;;;;;;6.03;1.85;;;17.90;73.40;;;;;;4769279;30;20066;-72
2022/10/05 14:08:20;;;;;;;6.53;2.35;;;17.90;73.50;;;;;;4772191;30;20117;-78
2022/10/05 14:10:46;;;;;;;6.85;1.83;;;17.90;73.50;;;;;;4773167;30;20060;-77
2022/10/05 17:31:50;;;;;;;5.15;1.90;;;18.10;73.00;;;;;;4788958;30;20127;-76
2022/10/05 17:34:16;;;;;;;3.63;1.67;;;18.10;73.10;;;;;;4774989;30;20064;-76
2022/10/05 17:36:50;;;;;;;5.78;2.10;;;18.00;73.30;;;;;;4759365;30;20144;-75
2022/10/05 17:39:42;;;;;;;8.57;1.33;;;17.90;73.50;;;;;;4760860;30;20417;-77
2022/10/05 17:42:29;;;;;;;7.63;1.88;;;17.80;73.90;;;;;;4788578;30;20063;-78
2022/10/05 17:45:12;;;;;;;4.47;1.40;;;17.80;74.10;;;;;;4787901;30;20367;-77
2022/10/05 17:48:01;;;;;;;5.90;1.50;;;17.80;74.20;;;;;;4790298;30;20514;-78
2022/10/05 17:56:30;;;;;;;8.35;1.85;;;17.80;75.10;;;;;;4777136;30;20040;-76
2022/10/05 17:58:58;;;;;;;8.18;2.90;;;17.80;75.40;;;;;;4788496;30;20051;-74
2022/10/05 18:01:36;;;;;;;6.97;1.98;;;17.80;75.70;;;;;;4776595;30;20056;-76
2022/10/05 18:04:11;;;;;;;7.25;2.10;;;17.80;75.90;;;;;;4774939;30;20066;-76
2022/10/05 18:06:57;;;;;;;4.18;2.33;;;17.80;76.00;;;;;;4774663;30;20085;-78
2022/10/05 18:09:24;;;;;;;5.40;1.95;;;17.80;75.60;;;;;;4774987;30;20056;-76
2022/10/05 18:12:14;;;;;;;6.70;2.17;;;17.80;75.50;;;;;;4759026;30;20108;-77
2022/10/05 18:14:53;;;;;;;4.45;1.67;;;17.80;75.40;;;;;;4774803;30;20108;-76
2022/10/05 18:17:39;;;;;;;5.30;2.00;;;17.70;75.30;;;;;;4758460;30;20106;-78
2022/10/05 18:20:25;;;;;;;3.97;2.10;;;17.70;75.60;;;;;;4774459;30;20054;-76
2022/10/05 18:22:53;;;;;;;5.63;1.80;;;17.70;76.00;;;;;;4783701;30;20463;-77
2022/10/05 18:25:33;;;;;;;7.50;1.92;;;17.70;76.30;;;;;;4779134;30;20129;-77
2022/10/05 18:28:16;;;;;;;4.10;1.90;;;17.70;76.70;;;;;;4774784;30;20056;-77
2022/10/05 18:31:24;;;;;;;3.33;1.55;;;17.60;76.80;;;;;;4774387;30;20074;-77
2022/10/05 18:34:02;;;;;;;7.43;2.00;;;17.60;76.80;;;;;;4762554;30;20138;-76
2022/10/05 18:37:06;;;;;;;3.15;1.70;;;17.60;77.30;;;;;;4774184;30;20507;-77
2022/10/05 18:40:14;;;;;;;6.82;2.15;;;17.50;77.30;;;;;;4759895;30;20499;-77
2022/10/05 18:43:04;;;;;;;4.22;2.10;;;17.50;77.40;;;;;;4775261;30;20050;-79
2022/10/05 18:45:48;;;;;;;3.97;1.95;;;17.50;77.80;;;;;;4780858;30;20096;-77
2022/10/05 18:48:38;;;;;;;6.63;2.90;;;17.50;78.10;;;;;;4782931;30;20079;-75
2022/10/05 18:51:09;;;;;;;3.60;1.75;;;17.60;79.10;;;;;;4774147;30;20372;-77
2022/10/05 18:54:23;;;;;;;4.05;1.42;;;17.50;79.10;;;;;;4781308;30;20058;-77
2022/10/05 18:56:51;;;;;;;4.63;1.08;;;17.50;79.10;;;;;;4737601;29;20074;-75
2022/10/05 18:59:35;;;;;;;5.00;1.00;;;17.50;79.30;;;;;;4776510;30;20105;-74
2022/10/05 19:02:29;;;;;;;6.90;0.88;;;17.50;79.40;;;;;;4791742;30;20055;-73
2022/10/05 19:05:22;;;;;;;2.27;0.80;;;17.50;79.40;;;;;;4790177;30;20097;-73
2022/10/05 19:07:59;;;;;;;1.67;0.40;;;17.50;79.20;;;;;;4773423;30;20106;-77
2022/10/05 19:10:45;;;;;;;3.47;0.43;;;17.50;79.40;;;;;;4773655;30;20056;-75
2022/10/05 19:13:27;;;;;;;4.03;0.77;;;17.50;79.30;;;;;;4773587;30;20122;-75
2022/10/05 19:16:13;;;;;;;2.30;0.40;;;17.40;79.20;;;;;;4773335;30;20060;-77
2022/10/05 19:18:53;;;;;;;5.97;0.93;;;17.40;79.20;;;;;;4774524;30;20062;-78
2022/10/05 19:21:38;;;;;;;4.85;0.90;;;17.40;79.10;;;;;;4776603;30;20047;-74
2022/10/05 19:24:42;;;;;;;6.32;0.88;;;17.50;79.30;;;;;;4780109;30;20055;-75
2022/10/05 19:27:14;;;;;;;;;;;17.40;79.10;;;;;;4728406;30;20070;-76
2022/10/05 19:30:07;;;;;;;2.53;0.45;;;17.30;79.10;;;;;;4783666;29;20214;-75
2022/10/05 19:32:35;;;;;;;5.45;0.82;;;17.30;79.30;;;;;;4773536;30;20055;-76
2022/10/05 19:35:27;;;;;;;3.97;0.57;;;17.30;79.30;;;;;;4777931;30;20122;-76
2022/10/05 19:38:13;;;;;;;2.60;0.60;;;17.30;79.30;;;;;;4750495;30;20103;-76
2022/10/05 19:40:52;;;;;;;4.18;0.52;;;17.30;79.40;;;;;;4778015;30;20055;-75
2022/10/05 19:43:27;;;;;;;3.25;0.60;;;17.30;79.50;;;;;;4782717;30;20220;-75
2022/10/05 19:46:39;;;;;;;3.42;0.63;;;17.20;79.50;;;;;;4789733;30;20055;-75
2022/10/05 19:49:09;;;;;;;2.47;0.40;;;17.20;79.50;;;;;;4716753;30;20061;-77
2022/10/05 19:51:48;;;;;;;4.18;0.43;;;17.20;79.50;;;;;;4763111;30;20067;-77
2022/10/05 19:54:24;;;;;;;5.80;1.00;;;17.30;79.60;;;;;;4757768;30;20050;-76
2022/10/05 19:56:53;;;;;;;3.03;0.47;;;17.20;79.50;;;;;;4790749;30;20051;-76
2022/10/05 19:59:27;;;;;;;3.65;0.50;;;17.20;79.50;;;;;;4790602;29;20120;-76
2022/10/05 20:01:55;;;;;;;4.50;0.82;;;17.20;79.50;;;;;;4788628;30;20093;-77
2022/10/05 20:04:36;;;;;;;3.42;0.52;;;17.10;79.70;;;;;;4790824;30;20047;-76
2022/10/05 20:07:02;;;;;;;3.20;0.82;;;17.10;79.80;;;;;;4790666;30;20059;-76
2022/10/05 20:09:46;;;;;;;3.80;0.55;;;17.20;79.70;;;;;;4788950;30;20124;-77
2022/10/05 20:12:14;;;;;;;7.43;1.13;;;17.10;79.70;;;;;;4782839;30;20452;-76
2022/10/05 20:20:20;;;;;;;4.43;1.00;;;17.20;79.80;;;;;;4774978;30;20124;-76
2022/10/05 20:20:35;;;;;;;6.53;1.58;;;17.10;79.80;;;;;;4790489;30;20371;-77
2022/10/05 20:23:36;;;;;;;4.50;0.63;;;17.10;79.80;;;;;;4790021;30;20051;-77
2022/10/05 20:28:47;;;;;;;4.55;0.90;;;17.00;79.70;;;;;;4773345;30;20059;-77
2022/10/05 20:31:13;;;;;;;4.38;1.05;;;17.10;79.90;;;;;;4784125;30;20498;-76
2022/10/05 20:33:39;;;;;;;3.47;0.50;;;17.00;79.90;;;;;;4790066;29;20055;-76
2022/10/05 20:36:07;;;;;;;4.60;1.10;;;17.00;79.90;;;;;;4782373;30;20063;-76
2022/10/05 20:38:34;;;;;;;3.30;0.50;;;17.00;79.90;;;;;;4772185;30;20059;-76
2022/10/05 20:41:00;;;;;;;4.28;0.88;;;17.00;79.80;;;;;;4772445;30;20387;-77
2022/10/05 20:43:26;;;;;;;5.80;1.00;;;17.00;79.80;;;;;;4756584;30;20135;-79
2022/10/05 20:45:52;;;;;;;4.88;0.63;;;17.00;79.70;;;;;;4772514;30;20056;-79
2022/10/05 20:48:18;;;;;;;5.75;0.52;;;17.00;79.80;;;;;;4758147;30;20065;-76
2022/10/05 20:50:44;;;;;;;10.98;0.82;;;17.00;79.80;;;;;;4775974;29;20097;-76
2022/10/05 20:53:10;;;;;;;4.80;0.80;;;17.00;79.70;;;;;;4773330;30;20047;-76
2022/10/05 20:55:35;;;;;;;3.53;0.68;;;17.10;79.80;;;;;;4789811;30;20425;-76
2022/10/05 20:58:02;;;;;;;7.03;0.93;;;17.00;79.60;;;;;;4789652;30;20055;-75
2022/10/05 21:01:14;;;;;;;4.53;0.45;;;17.00;79.60;;;;;;4789743;30;20067;-77
2022/10/05 21:03:18;;;;;;;5.18;0.70;;;17.00;79.70;;;;;;4789667;30;20101;-78
2022/10/05 21:05:45;;;;;;;4.07;0.82;;;17.00;79.80;;;;;;4785069;29;20047;-79
2022/10/05 21:08:12;;;;;;;3.85;0.50;;;17.00;79.70;;;;;;4771438;30;20055;-77
2022/10/05 21:10:38;;;;;;;5.82;0.70;;;17.10;79.70;;;;;;4772226;30;20366;-77
2022/10/05 21:13:04;;;;;;;3.20;0.65;;;17.10;79.40;;;;;;4771979;30;20056;-78
2022/10/05 21:15:31;;;;;;;3.70;0.47;;;17.10;79.20;;;;;;4772100;30;20066;-79
2022/10/05 21:17:57;;;;;;;4.93;1.33;;;17.10;79.10;;;;;;4770993;30;20047;-79
2022/10/05 21:20:22;;;;;;;4.55;0.73;;;17.10;79.00;;;;;;4756087;30;20072;-79
